Home > Products > Valid Products > TAF

000
FTUS43 KLOT 251100
TAFORD
TAF
KORD 251130Z 2512/2618 30008KT 5SM BR OVC008
     FM251400 30009KT P6SM FEW008
     FM251900 31013G20KT P6SM SCT100
     FM260000 30010KT P6SM FEW250
     FM260700 32007KT P6SM SKC
     FM261300 VRB03KT P6SM FEW250=



000
FTUS43 KLOT 251100
TAFRFD
TAF
KRFD 251130Z 2512/2612 28006KT 3SM BCFG BR SCT007
      TEMPO 2512/2515 1/4SM FG OVC007
     FM251500 30007KT P6SM FEW007
     FM251800 30014G22KT P6SM SCT100
     FM260000 29009KT P6SM FEW080
     FM260700 32007KT P6SM SKC=



000
FTUS43 KLOT 251100
TAFGYY
TAF
KGYY 251130Z 2512/2612 29008KT 5SM BR OVC012
     FM251400 27010KT P6SM FEW012
     FM251900 30013G20KT P6SM SCT100
     FM260000 29012KT P6SM FEW250
     FM260700 32011KT P6SM SKC=



000
FTUS43 KLOT 251100
TAFDPA
TAF
KDPA 251130Z 2512/2612 24005KT 5SM BR OVC010
     FM251400 31009KT P6SM FEW008
     FM251900 30014G22KT P6SM SCT100
     FM260000 29009KT P6SM FEW080
     FM260700 32008KT P6SM SKC=



000
FTUS43 KLOT 251100
TAFMDW
TAF
KMDW 251130Z 2512/2612 30009KT 5SM BR OVC008
     FM251400 29009KT P6SM FEW008
     FM251900 30013G20KT P6SM SCT100
     FM260000 29010KT P6SM FEW250
     FM260700 32007KT P6SM SKC=



000
FTUS43 KLOT 250800 AAA
TAFRFD
TAF AMD
KRFD 250850Z 2509/2606 28006KT 5SM BCFG BR BKN007 BKN015
      TEMPO 2509/2512 2SM BR
     FM251400 30007KT P6SM FEW250
     FM251800 30012G19KT P6SM SCT100
     FM260000 29008KT P6SM FEW080=



000
FTUS43 KLOT 250800 AAA
TAFORD
TAF AMD
KORD 250850Z 2509/2612 24005KT 6SM BR SCT007 OVC012
      TEMPO 2509/2512 4SM BR BKN007
     FM251500 30009KT P6SM FEW100
     FM251900 30012G19KT P6SM SCT100
     FM260000 29009KT P6SM FEW250
     FM260700 31007KT P6SM SKC=



000
FTUS43 KLOT 250800 AAA
TAFDPA
TAF AMD
KDPA 250850Z 2509/2606 24005KT 6SM BR SCT007 SCT012
      TEMPO 2509/2512 3SM BR BKN012
     FM251500 30007KT P6SM FEW250
     FM251900 30012G19KT P6SM SCT100
     FM260000 29008KT P6SM FEW080=



000
FTUS43 KLOT 250800 AAA
TAFMDW
TAF AMD
KMDW 250850Z 2509/2606 24005KT 6SM BR SCT007 SCT015
      TEMPO 2509/2512 4SM BR BKN015
     FM251500 30009KT P6SM FEW100
     FM251900 30012G19KT P6SM SCT100
     FM260000 29009KT P6SM FEW250=



000
FTUS43 KLOT 250800 AAA
TAFGYY
TAF AMD
KGYY 250850Z 2509/2606 23005KT 6SM BR SCT007 SCT015
      TEMPO 2509/2512 4SM BR BKN012
     FM251500 30007KT P6SM FEW250
     FM251900 30012G19KT P6SM SCT100
     FM260000 29009KT P6SM FEW250=



000
FTUS43 KLOT 250500 CCA
TAFDPA
TAF COR
KDPA 250551Z 2506/2606 23004KT 6SM BR BKN025 OVC035
     FM250700 26004KT 2SM BR SCT007 BKN015
      TEMPO 2509/2512 1/2SM FG BKN007
     FM251500 30007KT P6SM FEW250
     FM251900 30012G19KT P6SM SCT100
     FM260000 29008KT P6SM FEW080=



000
FTUS43 KLOT 250500 CCA
TAFRFD
TAF COR
KRFD 250550Z 2506/2606 23004KT 6SM BR SCT010 OVC040
     FM250700 28004KT 1SM BR BKN007 BKN015
      TEMPO 2508/2512 1/2SM FG
     FM251400 30007KT P6SM FEW250
     FM251800 30012G19KT P6SM SCT100
     FM260000 29008KT P6SM FEW080=



000
FTUS43 KLOT 250500
TAFORD
TAF
KORD 250534Z 2506/2612 23004KT P6SM BKN035 OVC050
     FM250800 26006KT 4SM BR SCT007 BKN015
      TEMPO 2509/2512 BKN007
     FM251500 30009KT P6SM FEW100
     FM251900 30012G19KT P6SM SCT100
     FM260000 29009KT P6SM FEW250
     FM260700 31007KT P6SM SKC=



000
FTUS43 KLOT 250500
TAFGYY
TAF
KGYY 250534Z 2506/2606 23004KT P6SM BKN035 OVC050
     FM250800 26006KT 4SM BR SCT007 BKN015
      TEMPO 2509/2512 BKN007
     FM251500 30007KT P6SM FEW250
     FM251900 30012G19KT P6SM SCT100
     FM260000 29009KT P6SM FEW250=



000
FTUS43 KLOT 250500
TAFMDW
TAF
KMDW 250534Z 2506/2606 23004KT P6SM BKN035 OVC050
     FM250800 26006KT 4SM BR SCT007 BKN015
      TEMPO 2509/2512 BKN007
     FM251500 30009KT P6SM FEW100
     FM251900 30012G19KT P6SM SCT100
     FM260000 29009KT P6SM FEW250=



000
FTUS43 KLOT 250500
TAFDPA
TAF
KDPA 250534Z 2506/2606 23004KT 6SM BR BKN025 OVC035
     FM250700 26006KT 2SM BR SCT007 BKN015
      TEMPO 2509/2512 1/2SM FG BKN007
     FM251500 30007KT P6SM FEW250
     FM251900 30012G19KT P6SM SCT100
     FM260000 29008KT P6SM FEW080=



000
FTUS43 KLOT 250500
TAFRFD
TAF
KRFD 250534Z 2506/2606 23004KT 6SM BR SCT010 OVC040
     FM250700 28007KT 1SM BR BKN007 BKN015
      TEMPO 2508/2512 1/2SM FG
     FM251400 30007KT P6SM FEW250
     FM251800 30012G19KT P6SM SCT100
     FM260000 29008KT P6SM FEW080=



000
FTUS43 KLOT 250400 AAC
TAFRFD
TAF AMD
KRFD 250440Z 2505/2524 23004KT 6SM BR SCT010 BKN020 OVC040
     FM250700 28007KT 1SM BR BKN007 BKN015
     FM251400 30007KT P6SM FEW250
     FM251800 30012G19KT P6SM FEW250=



000
FTUS43 KLOT 250200 AAB
TAFRFD
TAF AMD
KRFD 250258Z 2503/2524 20004KT P6SM OVC035
     FM250500 23004KT 5SM BR SCT010 OVC025
     FM250900 28007KT 2SM BR BKN008 BKN015
     FM251400 30007KT P6SM FEW250
     FM251800 30012G19KT P6SM FEW250=



000
FTUS43 KLOT 250200 AAA
TAFDPA
TAF AMD
KDPA 250258Z 2503/2524 22006KT P6SM BKN035
     FM250600 23004KT 6SM BR OVC025
     FM251000 26006KT 3SM BR SCT008 BKN015
     FM251500 30007KT P6SM FEW250
     FM251900 30012G19KT P6SM FEW250=



000
FTUS43 KLOT 250200 AAA
TAFGYY
TAF AMD
KGYY 250258Z 2503/2524 20006KT P6SM BKN035
     FM250600 23004KT 6SM BR OVC025
     FM251100 26006KT 4SM BR SCT008 BKN015
     FM251500 30007KT P6SM FEW250
     FM251900 30012G19KT P6SM FEW250=



000
FTUS43 KLOT 250200 AAA
TAFORD
TAF AMD
KORD 250258Z 2503/2606 22006KT P6SM BKN035
     FM250600 23004KT 6SM BR OVC025
     FM251000 26006KT 4SM BR SCT008 BKN015
     FM251500 30009KT P6SM FEW250
     FM251900 30012G19KT P6SM FEW250
     FM252300 29009KT P6SM FEW250=



000
FTUS43 KLOT 250200 AAA
TAFMDW
TAF AMD
KMDW 250258Z 2503/2524 22006KT P6SM BKN035
     FM250600 23004KT 6SM BR OVC025
     FM251000 26006KT 4SM BR SCT008 BKN015
     FM251500 30009KT P6SM FEW250
     FM251900 30012G19KT P6SM FEW250=



000
FTUS43 KLOT 250200 AAA
TAFRFD
TAF AMD
KRFD 250202Z 2502/2524 20004KT P6SM OVC035
     FM250300 21005KT P6SM BKN030
     FM250500 23004KT 3SM BR SCT006 OVC020
     FM250900 28007KT 4SM BR SCT008 BKN025
     FM251400 30007KT P6SM FEW250
     FM251800 30012G19KT P6SM FEW250=



000
FTUS43 KLOT 242300
TAFGYY
TAF
KGYY 242320Z 2500/2524 20005KT P6SM SCT080 BKN250
     FM250400 21005KT P6SM BKN030
     FM250700 23004KT 4SM BR SCT007 OVC025
     FM251100 26006KT 5SM BR FEW010 BKN030
     FM251500 30007KT P6SM FEW250
     FM251900 30012G19KT P6SM FEW250=



000
FTUS43 KLOT 242300
TAFDPA
TAF
KDPA 242320Z 2500/2524 20004KT P6SM BKN080
     FM250400 21005KT P6SM BKN030
     FM250600 23004KT 4SM BR SCT006 OVC025
     FM251000 26006KT 5SM BR FEW010 BKN030
     FM251500 30007KT P6SM FEW250
     FM251900 30012G19KT P6SM FEW250=



000
FTUS43 KLOT 242300
TAFRFD
TAF
KRFD 242320Z 2500/2524 19006KT P6SM SCT090 OVC250
     FM250200 21005KT 6SM BR BKN030
     FM250500 23004KT 3SM BR SCT006 OVC020
     FM250900 28007KT 4SM BR SCT008 BKN025
     FM251400 30007KT P6SM FEW250
     FM251800 30012G19KT P6SM FEW250=



000
FTUS43 KLOT 242300
TAFMDW
TAF
KMDW 242320Z 2500/2524 20005KT P6SM SCT080 BKN250
     FM250400 21005KT P6SM BKN030
     FM250600 23004KT 4SM BR SCT007 OVC025
     FM251000 26006KT 5SM BR FEW010 BKN030
     FM251500 30009KT P6SM FEW250
     FM251900 30012G19KT P6SM FEW250=



000
FTUS43 KLOT 242300
TAFORD
TAF
KORD 242320Z 2500/2606 19005KT P6SM SCT080 BKN250
     FM250400 21005KT P6SM BKN030
     FM250600 23004KT 4SM BR SCT007 OVC025
     FM251000 26006KT 5SM BR FEW010 BKN030
     FM251500 30009KT P6SM FEW250
     FM251900 30012G19KT P6SM FEW250
     FM252300 29009KT P6SM FEW250=



000
FTUS43 KLOT 242100 AAB
TAFORD
TAF AMD
KORD 242159Z 2422/2524 21006KT P6SM BKN250
     FM250000 19004KT P6SM BKN080
     FM250300 21005KT P6SM BKN030
     FM250600 23004KT 4SM BR SCT015 BKN030
     FM251500 30007KT P6SM FEW250=



000
FTUS43 KLOT 242100 AAB
TAFGYY
TAF AMD
KGYY 242159Z 2422/2518 22006KT P6SM BKN250
     FM250000 19005KT P6SM BKN080
     FM250300 21005KT P6SM BKN030
     FM250600 23004KT 4SM BR SCT015 BKN030
     FM251500 30007KT P6SM FEW250=



000
FTUS43 KLOT 242100 AAB
TAFMDW
TAF AMD
KMDW 242159Z 2422/2518 22006KT P6SM BKN250
     FM250300 21005KT P6SM BKN030
     FM250600 23004KT 4SM BR SCT015 BKN030
     FM251500 30007KT P6SM FEW250=



000
FTUS43 KLOT 242100 AAB
TAFRFD
TAF AMD
KRFD 242159Z 2422/2518 21007KT P6SM SCT090 BKN250
     FM250200 21005KT 6SM BR BKN030
     FM250600 23004KT 3SM BR SCT015 BKN030
     FM251400 30007KT P6SM FEW250=



000
FTUS43 KLOT 242100 AAB
TAFDPA
TAF AMD
KDPA 242159Z 2422/2518 22008KT P6SM BKN250
     FM250000 22004KT P6SM BKN080
     FM250300 21005KT P6SM BKN030
     FM250600 23004KT 4SM BR SCT015 BKN030
     FM251500 30007KT P6SM FEW250=



000
FTUS43 KLOT 241900 AAA
TAFDPA
TAF AMD
KDPA 241959Z 2420/2518 23009KT P6SM BKN250
     FM250000 22004KT P6SM BKN080
     FM250300 21005KT P6SM BKN030
     FM250600 23004KT 4SM BR SCT015 BKN030
     FM251500 30007KT P6SM FEW250=



000
FTUS43 KLOT 241900 AAA
TAFORD
TAF AMD
KORD 241959Z 2420/2524 23006KT P6SM BKN250
     FM250000 19004KT P6SM BKN080
     FM250300 21005KT P6SM BKN030
     FM250600 23004KT 4SM BR SCT015 BKN030
     FM251500 30007KT P6SM FEW250=



000
FTUS43 KLOT 241900 AAA
TAFRFD
TAF AMD
KRFD 241959Z 2420/2518 21007KT P6SM SCT080 BKN250
     FM250200 21005KT 6SM BR BKN030
     FM250600 23004KT 3SM BR SCT015 BKN030
     FM251400 30007KT P6SM FEW250=



000
FTUS43 KLOT 241900 AAA
TAFMDW
TAF AMD
KMDW 241959Z 2420/2518 24006KT P6SM BKN250
     FM250300 21005KT P6SM BKN030
     FM250600 23004KT 4SM BR SCT015 BKN030
     FM251500 30007KT P6SM FEW250=



000
FTUS43 KLOT 241900 AAA
TAFGYY
TAF AMD
KGYY 241959Z 2420/2518 21006KT P6SM BKN250
     FM250000 19005KT P6SM BKN080
     FM250300 21005KT P6SM BKN030
     FM250600 23004KT 4SM BR SCT015 BKN030
     FM251500 30007KT P6SM FEW250=



000
FTUS43 KLOT 241700
TAFORD
TAF
KORD 241732Z 2418/2524 19006KT P6SM FEW025 BKN250
     FM250000 19004KT P6SM BKN080
     FM250300 21005KT P6SM BKN030
     FM250600 23004KT 4SM BR SCT015 BKN030
     FM251500 30007KT P6SM FEW250=



000
FTUS43 KLOT 241700
TAFRFD
TAF
KRFD 241732Z 2418/2518 21007KT 2SM BR BKN004
     FM241900 20007KT 6SM BR SCT007 BKN250
     FM242200 21006KT 6SM BR BKN080
     FM250200 21005KT 6SM BR BKN030
     FM250600 23004KT 3SM BR SCT015 BKN030
     FM251400 30007KT P6SM FEW250=



000
FTUS43 KLOT 241700
TAFDPA
TAF
KDPA 241732Z 2418/2518 19005KT P6SM SCT020 BKN250
     FM250000 22004KT P6SM BKN080
     FM250300 21005KT P6SM BKN030
     FM250600 23004KT 4SM BR SCT015 BKN030
     FM251500 30007KT P6SM FEW250=



000
FTUS43 KLOT 241700
TAFMDW
TAF
KMDW 241732Z 2418/2518 19006KT P6SM FEW025 BKN250
     FM250300 21005KT P6SM BKN030
     FM250600 23004KT 4SM BR SCT015 BKN030
     FM251500 30007KT P6SM FEW250=



000
FTUS43 KLOT 241700
TAFGYY
TAF
KGYY 241732Z 2418/2518 19006KT P6SM SCT027 BKN250
     FM250000 19005KT P6SM BKN080
     FM250300 21005KT P6SM BKN030
     FM250600 23004KT 4SM BR SCT015 BKN030
     FM251500 30007KT P6SM FEW250=



000
FTUS43 KLOT 241600 AAC
TAFMDW
TAF AMD
KMDW 241610Z 2416/2512 24006KT P6SM BKN027
     FM241700 21006KT P6SM FEW025 SCT250
     FM250000 19004KT P6SM BKN080
     FM250300 21005KT 3SM BR BKN015
     FM250600 23004KT 1SM BR SCT005=



000
FTUS43 KLOT 241600 AAB
TAFGYY
TAF AMD
KGYY 241601Z 2416/2512 24007KT P6SM SCT030 BKN250
      TEMPO 2416/2418 BKN030
     FM250000 19005KT P6SM BKN080
     FM250300 21005KT 3SM BR BKN015
     FM250600 24004KT 1SM BR SCT005=



000
FTUS43 KLOT 241500 AAC
TAFRFD
TAF AMD
KRFD 241501Z 2415/2512 00000KT 3/4SM BR OVC002
     FM241600 18004KT 1SM BR BKN005
     FM241900 20007KT 6SM BR SCT007 SCT250
     FM242200 21006KT P6SM BKN080
     FM250300 20007KT 3SM BR BKN015
     FM250600 24004KT 1SM BR SCT005=



000
FTUS43 KLOT 241500 AAB
TAFORD
TAF AMD
KORD 241501Z 2415/2518 26006KT P6SM FEW025 SCT250
     FM250000 19004KT P6SM BKN080
     FM250300 21005KT 3SM BR BKN015
     FM250600 23004KT 1SM BR SCT005
     FM251500 27007KT 4SM BR FEW250=



000
FTUS43 KLOT 241500 AAB
TAFMDW
TAF AMD
KMDW 241501Z 2415/2512 24006KT P6SM FEW025 SCT250
     FM250000 19004KT P6SM BKN080
     FM250300 21005KT 3SM BR BKN015
     FM250600 23004KT 1SM BR SCT005=



000
FTUS43 KLOT 241500 AAB
TAFDPA
TAF AMD
KDPA 241501Z 2415/2512 23005KT P6SM SCT020 SCT250
     FM250000 22004KT P6SM BKN080
     FM250300 21006KT 3SM BR BKN015
     FM250600 24004KT 1SM BR SCT005=



000
FTUS43 KLOT 241400 AAA
TAFDPA
TAF AMD
KDPA 241400Z 2414/2512 VRB03KT P6SM BKN020
     FM241600 24007KT P6SM SCT020 SCT250
     FM250000 22004KT P6SM BKN080
     FM250300 21006KT 3SM BR BKN015
     FM250600 24004KT 1SM BR SCT005=



000
FTUS43 KLOT 241400 AAA
TAFGYY
TAF AMD
KGYY 241400Z 2414/2512 23005KT P6SM BKN030
     FM241600 24007KT P6SM SCT030 BKN250
     FM250000 19005KT P6SM BKN080
     FM250300 21005KT 3SM BR BKN015
     FM250600 24004KT 1SM BR SCT005=



000
FTUS43 KLOT 241400 AAB
TAFRFD
TAF AMD
KRFD 241400Z 2414/2512 00000KT 1SM BR OVC003
     FM241600 27004KT 3SM BR BKN005
     FM241800 22007KT P6SM SCT025 SCT250
     FM242200 21006KT P6SM BKN080
     FM250300 20007KT 3SM BR BKN015
     FM250600 24004KT 1SM BR SCT005=



000
FTUS43 KLOT 241400 AAA
TAFORD
TAF AMD
KORD 241400Z 2414/2518 29006KT P6SM BKN028
     FM241600 23007KT P6SM SCT028 BKN250
     FM250000 19004KT P6SM BKN080
     FM250300 21005KT 3SM BR BKN015
     FM250600 23004KT 1SM BR SCT005
     FM251500 27007KT 4SM BR FEW250=



000
FTUS43 KLOT 241400 AAA
TAFMDW
TAF AMD
KMDW 241400Z 2414/2512 26006KT P6SM BKN030
     FM241600 23007KT P6SM SCT030 BKN250
     FM250000 19004KT P6SM BKN080
     FM250300 21005KT 3SM BR BKN015
     FM250600 23004KT 1SM BR SCT005=



000
FTUS43 KLOT 241200 AAA
TAFRFD
TAF AMD
KRFD 241247Z 2413/2512 00000KT 1 1/2SM BR OVC005
     FM241500 27004KT 6SM BR BKN007
     FM241700 22007KT P6SM SCT025 SCT250
     FM242200 21006KT P6SM BKN080
     FM250300 20007KT 3SM BR BKN015
     FM250600 24004KT 1SM BR SCT005=



000
FTUS43 KLOT 241100
TAFGYY
TAF
KGYY 241131Z 2412/2512 VRB03KT P6SM SCT025 OVC040
      TEMPO 2412/2416 BKN025
     FM241600 24007KT P6SM SCT025 BKN250
     FM250000 19005KT P6SM BKN080
     FM250300 21005KT 3SM BR BKN015
     FM250600 24004KT 1SM BR SCT005=



000
FTUS43 KLOT 241100
TAFRFD
TAF
KRFD 241131Z 2412/2512 00000KT 1/2SM FG VV003
     FM241400 27004KT P6SM OVC015
     FM241600 22007KT P6SM SCT025 SCT250
     FM242200 21006KT P6SM BKN080
     FM250300 20007KT 3SM BR BKN015
     FM250600 24004KT 1SM BR SCT005=



000
FTUS43 KLOT 241100
TAFMDW
TAF
KMDW 241131Z 2412/2512 23005KT P6SM OVC028
     FM241600 23007KT P6SM SCT025 BKN250
     FM250000 19004KT P6SM BKN080
     FM250300 21005KT 3SM BR BKN015
     FM250600 23004KT 1SM BR SCT005=



000
FTUS43 KLOT 241100
TAFORD
TAF
KORD 241131Z 2412/2518 VRB03KT P6SM OVC030
     FM241600 23007KT P6SM SCT025 BKN250
     FM250000 19004KT P6SM BKN080
     FM250300 21005KT 3SM BR BKN015
     FM250600 23004KT 1SM BR SCT005
     FM251500 27007KT 4SM BR FEW250=



000
FTUS43 KLOT 241100
TAFDPA
TAF
KDPA 241131Z 2412/2512 VRB03KT P6SM OVC025
     FM241600 24007KT P6SM SCT025 SCT250
     FM250000 22004KT P6SM BKN080
     FM250300 21006KT 3SM BR BKN015
     FM250600 24004KT 1SM BR SCT005=



000
FTUS43 KLOT 241000 AAB
TAFMDW
TAF AMD
KMDW 241029Z 2410/2506 20005KT P6SM OVC025
     FM241400 24005KT P6SM SCT010 OVC020
     FM241800 23007KT P6SM SCT025 BKN250
     FM250000 19004KT P6SM BKN080=



000
FTUS43 KLOT 241000 AAD
TAFRFD
TAF AMD
KRFD 241029Z 2410/2506 00000KT 1/2SM FG VV003
     FM241300 VRB03KT 2SM BR MIFG OVC007
     FM241500 27004KT P6SM OVC015
     FM241800 22007KT P6SM SCT025 SCT250
     FM242200 21006KT P6SM BKN080
     FM250300 20007KT 3SM BR BKN015=



000
FTUS43 KLOT 241000 AAB
TAFGYY
TAF AMD
KGYY 241029Z 2410/2506 VRB03KT P6SM OVC025
      TEMPO 2410/2413 3SM BR SCT020
     FM241400 24005KT P6SM SCT010 OVC020
     FM241800 24007KT P6SM SCT025 BKN250
     FM250000 19005KT P6SM BKN080=



000
FTUS43 KLOT 241000 AAB
TAFDPA
TAF AMD
KDPA 241029Z 2410/2506 VRB03KT P6SM OVC025
     FM241400 27004KT P6SM SCT010 OVC020
     FM241800 24007KT P6SM SCT025 SCT250
     FM250000 22004KT P6SM BKN080
     FM250400 21006KT 3SM BR BKN015=



000
FTUS43 KLOT 241000 AAB
TAFORD
TAF AMD
KORD 241029Z 2410/2512 VRB03KT P6SM OVC025
     FM241400 25004KT P6SM SCT010 OVC020
     FM241800 23007KT P6SM SCT025 BKN250
     FM250000 19004KT P6SM BKN080
     FM250600 21005KT 3SM BR BKN015=



000
FTUS43 KLOT 240900 AAC
TAFRFD
TAF AMD
KRFD 240901Z 2409/2506 00000KT 3/4SM BR SCT004
      TEMPO 2409/2412 1/2SM FG OVC004
     FM241200 VRB03KT 2SM BR MIFG OVC008
     FM241400 27004KT P6SM OVC015
     FM241800 22007KT P6SM SCT025 SCT250
     FM242200 21006KT P6SM BKN080
     FM250300 20007KT 3SM BR BKN015=



000
FTUS43 KLOT 240900 AAA
TAFMDW
TAF AMD
KMDW 240901Z 2409/2506 20005KT P6SM OVC025
      TEMPO 2409/2413 4SM BR SCT025
     FM241400 24005KT P6SM SCT010 OVC020
     FM241800 23007KT P6SM SCT025 BKN250
     FM250000 19004KT P6SM BKN080=



000
FTUS43 KLOT 240900 AAA
TAFORD
TAF AMD
KORD 240901Z 2409/2512 23004KT P6SM OVC022
      TEMPO 2409/2413 4SM BR SCT020
     FM241400 25004KT P6SM SCT010 OVC020
     FM241800 23007KT P6SM SCT025 BKN250
     FM250000 19004KT P6SM BKN080
     FM250600 21005KT 3SM BR BKN015=



000
FTUS43 KLOT 240900 AAA
TAFGYY
TAF AMD
KGYY 240901Z 2409/2506 21003KT P6SM VCSH OVC025
      TEMPO 2410/2413 3SM BR SCT020
     FM241400 24005KT P6SM SCT010 OVC020
     FM241800 24007KT P6SM SCT025 BKN250
     FM250000 19005KT P6SM BKN080=



000
FTUS43 KLOT 240900 AAA
TAFDPA
TAF AMD
KDPA 240901Z 2409/2506 18005KT P6SM OVC020
      TEMPO 2409/2413 2SM BR SCT020
     FM241400 27004KT P6SM SCT010 OVC020
     FM241800 24007KT P6SM SCT025 SCT250
     FM250000 22004KT P6SM BKN080
     FM250400 21006KT 3SM BR BKN015=



000
FTUS43 KLOT 240700 AAB
TAFRFD
TAF AMD
KRFD 240731Z 2408/2506 00000KT 3/4SM BR SCT003 SCT030
      TEMPO 2408/2412 1/4SM FG VV003
     FM241200 VRB03KT 2SM BR MIFG OVC008
     FM241400 27004KT P6SM OVC015
     FM241800 22007KT P6SM SCT025 SCT250
     FM242200 21006KT P6SM BKN080
     FM250300 20007KT 3SM BR BKN015=



000
FTUS43 KLOT 240600 AAA
TAFRFD
TAF AMD
KRFD 240632Z 2407/2506 00000KT 3/4SM BR VV003
      TEMPO 2407/2411 1/4SM FG
     FM241200 VRB03KT 2SM BR MIFG OVC008
     FM241400 27004KT P6SM OVC015
     FM241800 22007KT P6SM SCT025 SCT250
     FM242200 21006KT P6SM BKN080
     FM250300 20007KT 3SM BR BKN015=



000
FTUS43 KLOT 240500
TAFRFD
TAF
KRFD 240526Z 2406/2506 VRB03KT 6SM BR FEW024 BKN040
     FM240800 VRB03KT 2SM BR MIFG OVC008
     FM241400 27004KT P6SM OVC015
     FM241800 22007KT P6SM SCT025 SCT250
     FM242200 21006KT P6SM BKN080
     FM250300 20007KT 3SM BR BKN015=



000
FTUS43 KLOT 240500
TAFORD
TAF
KORD 240526Z 2406/2512 21004KT P6SM OVC025
     FM240900 VRB03KT P6SM OVC018
     FM241100 VRB03KT 4SM BR OVC012
     FM241400 25004KT P6SM SCT010 OVC020
     FM241800 23007KT P6SM SCT025 BKN250
     FM250000 19004KT P6SM BKN080
     FM250600 21005KT 3SM BR BKN015=



000
FTUS43 KLOT 240500
TAFDPA
TAF
KDPA 240526Z 2406/2506 VRB03KT P6SM OVC026
     FM240800 VRB03KT 4SM BR OVC015
     FM241000 VRB03KT 3SM BR OVC010
     FM241400 27004KT P6SM SCT010 OVC020
     FM241800 24007KT P6SM SCT025 SCT250
     FM250000 22004KT P6SM BKN080
     FM250400 21006KT 3SM BR BKN015=



000
FTUS43 KLOT 240500
TAFMDW
TAF
KMDW 240526Z 2406/2506 21007KT P6SM OVC030
     FM240900 23003KT P6SM OVC018
     FM241100 23004KT 6SM BR OVC012
     FM241400 24005KT P6SM SCT010 OVC020
     FM241800 23007KT P6SM SCT025 BKN250
     FM250000 19004KT P6SM BKN080=



000
FTUS43 KLOT 240500
TAFGYY
TAF
KGYY 240526Z 2406/2506 VRB03KT P6SM VCSH OVC035
     FM241000 VRB03KT 4SM BR OVC018
     FM241400 24005KT P6SM SCT010 OVC020
     FM241800 24007KT P6SM SCT025 BKN250
     FM250000 19005KT P6SM BKN080=



000
FTUS43 KLOT 240200 AAC
TAFRFD
TAF AMD
KRFD 240248Z 2403/2424 19004KT P6SM BKN020 OVC030
     FM240500 VRB03KT 6SM BR OVC018
     FM241000 VRB02KT 2SM BR OVC008
     FM241500 21006KT P6SM OVC015
     FM241800 21008KT P6SM SCT025 SCT250=



000
FTUS43 KLOT 240200 AAA
TAFDPA
TAF AMD
KDPA 240248Z 2403/2424 18005KT P6SM OVC028
     FM240800 21006KT P6SM OVC015
     FM241000 VRB03KT 3SM BR OVC010
     FM241500 23005KT P6SM SCT010 OVC020
     FM241800 21008KT P6SM SCT025 SCT250=



000
FTUS43 KLOT 240200 AAB
TAFGYY
TAF AMD
KGYY 240248Z 2403/2424 18005KT P6SM OVC035
     FM240400 19008KT P6SM VCSH OVC028
     FM241000 24004KT 4SM BR OVC012
     FM241500 23005KT P6SM SCT010 OVC020
     FM241800 21008KT P6SM SCT025 BKN250=



000
FTUS43 KLOT 240200 AAA
TAFORD
TAF AMD
KORD 240248Z 2403/2506 20006KT P6SM OVC025
     FM240900 23004KT P6SM OVC018
     FM241100 24003KT 4SM BR OVC012
     FM241500 23005KT P6SM SCT010 OVC020
     FM241800 21008KT P6SM SCT025 BKN250
     FM250000 19005KT P6SM BKN100=



000
FTUS43 KLOT 240200 AAA
TAFMDW
TAF AMD
KMDW 240248Z 2403/2424 20007KT P6SM OVC035
     FM240400 22005KT P6SM OVC028
     FM241000 24004KT 4SM BR OVC012
     FM241500 23005KT P6SM SCT010 OVC020
     FM241800 21008KT P6SM SCT025 BKN250=



000
FTUS43 KLOT 240200 AAB
TAFGYY
TAF AMD
KGYY 240248Z 2403/2424 18005KT P6SM OVC035
     FM240400 19008KT P6SM VCSH OVC028
     FM241000 24004KT 4SM BR OVC012
     FM241500 23005KT P6SM SCT010 OVC020
     FM241800 21008KT P6SM SCT025 BKN250=



000
FTUS43 KLOT 240200 AAA
TAFDPA
TAF AMD
KDPA 240248Z 2403/2424 18005KT P6SM OVC028
     FM240800 21006KT P6SM OVC015
     FM241000 VRB03KT 3SM BR OVC010
     FM241500 23005KT P6SM SCT010 OVC020
     FM241800 21008KT P6SM SCT025 SCT250=



000
FTUS43 KLOT 240200 AAA
TAFMDW
TAF AMD
KMDW 240248Z 2403/2424 20007KT P6SM OVC035
     FM240400 22005KT P6SM OVC028
     FM241000 24004KT 4SM BR OVC012
     FM241500 23005KT P6SM SCT010 OVC020
     FM241800 21008KT P6SM SCT025 BKN250=



000
FTUS43 KLOT 240200 AAA
TAFORD
TAF AMD
KORD 240248Z 2403/2506 20006KT P6SM OVC025
     FM240900 23004KT P6SM OVC018
     FM241100 24003KT 4SM BR OVC012
     FM241500 23005KT P6SM SCT010 OVC020
     FM241800 21008KT P6SM SCT025 BKN250
     FM250000 19005KT P6SM BKN100=



000
FTUS43 KLOT 240200 AAC
TAFRFD
TAF AMD
KRFD 240248Z 2403/2424 19004KT P6SM BKN020 OVC030
     FM240500 VRB03KT 6SM BR OVC018
     FM241000 VRB02KT 2SM BR OVC008
     FM241500 21006KT P6SM OVC015
     FM241800 21008KT P6SM SCT025 SCT250=



000
FTUS43 KLOT 240200 AAB
TAFRFD
TAF AMD
KRFD 240226Z 2402/2424 19004KT P6SM BKN020 OVC030
     FM240500 VRB03KT 6SM BR OVC018
     FM241000 VRB02KT 3SM BR OVC008
     FM241500 21006KT P6SM SCT010 BKN025
     FM241800 21008KT P6SM SCT025 SCT250=



000
FTUS43 KLOT 240200 AAB
TAFRFD
TAF AMD
KRFD 240226Z 2402/2424 19004KT P6SM BKN020 OVC030
     FM240500 VRB03KT 6SM BR OVC018
     FM241000 VRB02KT 3SM BR OVC008
     FM241500 21006KT P6SM SCT010 BKN025
     FM241800 21008KT P6SM SCT025 SCT250=



000
FTUS43 KLOT 232300 AAA
TAFRFD
TAF AMD
KRFD 232344Z 2400/2424 20004KT 5SM -RA BR OVC025
     FM240300 VRB03KT 4SM BR OVC015
     FM240800 VRB03KT 1/2SM FG OVC005
     FM241200 VRB03KT 1/4SM FG BKN005
     FM241430 21006KT P6SM SCT010 BKN025
     FM241800 21008KT P6SM SCT025 SCT250=



000
FTUS43 KLOT 232300 AAA
TAFGYY
TAF AMD
KGYY 232344Z 2400/2424 18005KT P6SM SCT100 BKN200
     FM240100 19008KT P6SM VCSH SCT035 OVC060
     FM240500 23004KT P6SM BKN025 OVC040
     FM240900 20006KT 4SM BR OVC012
     FM241400 24007KT P6SM SCT010 BKN020
     FM241800 21008KT P6SM SCT025 SCT250=



000
FTUS43 KLOT 232300 RRA
TAFDPA
TAF
KDPA 232342Z 2400/2424 19008KT P6SM VCSH SCT035 BKN060 BKN100
      TEMPO 2401/2402 -SHRA
     FM240400 22005KT P6SM BKN025 OVC040
     FM240800 21006KT P6SM OVC012
     FM241000 VRB03KT 3SM BR SCT010 BKN015
     FM241200 VRB03KT 1SM BR OVC008
     FM241400 23005KT P6SM SCT010 BKN020
     FM241800 21008KT P6SM SCT025 SCT250=



000
FTUS43 KLOT 232300 RRA
TAFMDW
TAF
KMDW 232342Z 2400/2424 20008KT P6SM VCSH SCT035 OVC060
     FM240600 22005KT P6SM BKN025 OVC040
     FM240900 24004KT 4SM BR OVC012
     FM241400 23005KT P6SM SCT010 BKN020
     FM241800 21008KT P6SM SCT025 SCT250=



000
FTUS43 KLOT 232300 RRA
TAFGYY
TAF
KGYY 232342Z 2400/2424 20008G16KT P6SM SCT100 BKN200
     FM240100 19008KT P6SM VCSH SCT035 OVC060
     FM240300 23004KT P6SM BKN025 OVC040
     FM240900 20006KT 4SM BR OVC012
     FM241400 24007KT P6SM SCT010 BKN020
     FM241800 21008KT P6SM SCT025 SCT250=



000
FTUS43 KLOT 232300 RRA
TAFRFD
TAF
KRFD 232342Z 2400/2424 20004KT 6SM BR OVC025
     FM240300 VRB03KT 4SM BR OVC012
     FM240900 VRB03KT 1/2SM FG OVC005
     FM241200 VRB03KT 1/4SM FG BKN005
     FM241430 21006KT P6SM SCT010 BKN025
     FM241800 21008KT P6SM SCT025 SCT250=



000
FTUS43 KLOT 232300 RRA
TAFORD
TAF
KORD 232342Z 2400/2506 20006KT P6SM VCSH SCT035 OVC060
      TEMPO 2401/2402 -SHRA
     FM240400 22005KT P6SM BKN025 OVC040
     FM240900 24004KT 3SM BR OVC012
     FM241400 23005KT P6SM SCT010 BKN020
     FM241800 21008KT P6SM SCT025 SCT250
     FM250000 19005KT P6SM BKN100=



000
FTUS43 KLOT 232200 AAB
TAFRFD
TAF AMD
KRFD 232206Z 2322/2418 20012KT P6SM -SHRA SCT020 OVC035
     FM232330 20004KT 6SM BR OVC025
     FM240400 VRB03KT 4SM BR OVC015
     FM240900 VRB03KT 1/2SM FG BKN010
     FM241200 VRB03KT 1/4SM FG BKN010
     FM241400 21006KT P6SM SCT010 BKN025=



000
FTUS43 KLOT 232200 AAB
TAFDPA
TAF AMD
KDPA 232206Z 2322/2418 20011KT P6SM BKN090 OVC200
     FM240000 19008KT P6SM VCSH SCT035 OVC060
      TEMPO 2400/2402 -SHRA
     FM240300 22005KT P6SM BKN025 OVC040
     FM240500 21006KT P6SM OVC012
     FM241000 VRB03KT 3SM BR SCT010 BKN015
     FM241200 VRB03KT 1SM BR SCT010 BKN015
     FM241400 23005KT P6SM SCT010 BKN020=



000
FTUS43 KLOT 232200 AAB
TAFGYY
TAF AMD
KGYY 232206Z 2322/2418 20008G16KT P6SM SCT100 BKN200
     FM240100 19008KT P6SM VCSH SCT035 OVC060
     FM240300 23004KT P6SM BKN025 OVC040
     FM240400 20006KT P6SM SCT010 BKN015
     FM241400 24007KT P6SM SCT010 BKN020=



000
FTUS43 KLOT 232200 AAB
TAFMDW
TAF AMD
KMDW 232206Z 2322/2418 22010KT P6SM BKN100 OVC150
     FM240000 20008KT P6SM VCSH SCT035 OVC060
      TEMPO 2400/2402 -SHRA
     FM240300 24005KT P6SM BKN025 OVC040
     FM240600 21006KT P6SM OVC015
     FM241400 23005KT P6SM SCT010 BKN020=



000
FTUS43 KLOT 232200 AAB
TAFORD
TAF AMD
KORD 232206Z 2322/2424 20010KT P6SM BKN100 OVC200
     FM240000 20008KT P6SM VCSH SCT035 OVC060
      TEMPO 2400/2402 -SHRA
     FM240300 22005KT P6SM BKN025 OVC040
     FM240600 21006KT P6SM OVC015
     FM241400 23005KT P6SM SCT010 BKN020
     FM241800 23008KT P6SM SCT025=



000
FTUS43 KLOT 231900 AAA
TAFORD
TAF AMD
KORD 231947Z 2320/2424 20011G17KT P6SM BKN200
     FM240000 20008KT P6SM VCSH SCT035 OVC060
     FM240200 22005KT P6SM BKN025 OVC040
     FM240300 21006KT P6SM SCT010 BKN015
     FM241400 23005KT P6SM SCT010 BKN020
     FM241800 23008KT P6SM SCT025=



000
FTUS43 KLOT 231900 AAA
TAFRFD
TAF AMD
KRFD 231947Z 2320/2418 20013KT P6SM SCT030 OVC060
      TEMPO 2322/2323 -SHRA SCT020 OVC035
     FM232300 20004KT 6SM BR OVC020
     FM240600 VRB03KT 2SM BR BKN015
     FM240900 VRB03KT 1/2SM FG BKN010
     FM241200 VRB03KT 1/4SM FG BKN010
     FM241400 21006KT P6SM SCT010 BKN025=



000
FTUS43 KLOT 231900 AAA
TAFDPA
TAF AMD
KDPA 231947Z 2320/2418 20011KT P6SM FEW120 BKN200
     FM240000 19008KT P6SM VCSH SCT035 OVC060
     FM240200 22005KT P6SM BKN025 OVC040
     FM240300 21006KT P6SM SCT010 BKN015
     FM240900 VRB03KT 3SM BR SCT010 BKN015
     FM241200 VRB03KT 1SM BR SCT010 BKN015
     FM241400 23005KT P6SM SCT010 BKN020=



000
FTUS43 KLOT 231900 AAA
TAFGYY
TAF AMD
KGYY 231947Z 2320/2418 20008G16KT P6SM BKN200
     FM240100 19008KT P6SM VCSH SCT035 OVC060
     FM240300 23004KT P6SM BKN025 OVC040
     FM240400 20006KT P6SM SCT010 BKN015
     FM241400 24007KT P6SM SCT010 BKN020=



000
FTUS43 KLOT 231900 AAA
TAFMDW
TAF AMD
KMDW 231947Z 2320/2418 22012G19KT P6SM BKN200
     FM240000 20008KT P6SM VCSH SCT035 OVC060
     FM240200 24005KT P6SM BKN025 OVC040
     FM240300 21006KT P6SM SCT010 BKN015
     FM241400 23005KT P6SM SCT010 BKN020=



000
FTUS43 KLOT 231900 AAA
TAFORD
TAF AMD
KORD 231947Z 2320/2424 20011G17KT P6SM BKN200
     FM240000 20008KT P6SM VCSH SCT035 OVC060
     FM240200 22005KT P6SM BKN025 OVC040
     FM240300 21006KT P6SM SCT010 BKN015
     FM241400 23005KT P6SM SCT010 BKN020
     FM241800 23008KT P6SM SCT025=



000
FTUS43 KLOT 231900 AAA
TAFRFD
TAF AMD
KRFD 231947Z 2320/2418 20013KT P6SM SCT030 OVC060
      TEMPO 2322/2323 -SHRA SCT020 OVC035
     FM232300 20004KT 6SM BR OVC020
     FM240600 VRB03KT 2SM BR BKN015
     FM240900 VRB03KT 1/2SM FG BKN010
     FM241200 VRB03KT 1/4SM FG BKN010
     FM241400 21006KT P6SM SCT010 BKN025=



000
FTUS43 KLOT 231900 AAA
TAFMDW
TAF AMD
KMDW 231947Z 2320/2418 22012G19KT P6SM BKN200
     FM240000 20008KT P6SM VCSH SCT035 OVC060
     FM240200 24005KT P6SM BKN025 OVC040
     FM240300 21006KT P6SM SCT010 BKN015
     FM241400 23005KT P6SM SCT010 BKN020=



000
FTUS43 KLOT 231900 AAA
TAFDPA
TAF AMD
KDPA 231947Z 2320/2418 20011KT P6SM FEW120 BKN200
     FM240000 19008KT P6SM VCSH SCT035 OVC060
     FM240200 22005KT P6SM BKN025 OVC040
     FM240300 21006KT P6SM SCT010 BKN015
     FM240900 VRB03KT 3SM BR SCT010 BKN015
     FM241200 VRB03KT 1SM BR SCT010 BKN015
     FM241400 23005KT P6SM SCT010 BKN020=



000
FTUS43 KLOT 231900 AAA
TAFGYY
TAF AMD
KGYY 231947Z 2320/2418 20008G16KT P6SM BKN200
     FM240100 19008KT P6SM VCSH SCT035 OVC060
     FM240300 23004KT P6SM BKN025 OVC040
     FM240400 20006KT P6SM SCT010 BKN015
     FM241400 24007KT P6SM SCT010 BKN020=



000
FTUS43 KLOT 231700
TAFMDW
TAF
KMDW 231736Z 2318/2418 23012KT P6SM BKN200
     FM232300 20008KT P6SM VCSH SCT035 OVC060
     FM240100 24005KT P6SM BKN025 OVC040
     FM240300 21006KT P6SM SCT010 BKN015
     FM241400 23005KT P6SM SCT010 BKN020=



000
FTUS43 KLOT 231700
TAFDPA
TAF
KDPA 231736Z 2318/2418 20011KT P6SM FEW120 BKN200
     FM232300 19008KT P6SM VCSH SCT035 OVC060
     FM240100 22005KT P6SM BKN025 OVC040
     FM240300 21006KT P6SM SCT010 BKN015
     FM240900 VRB03KT 3SM BR SCT010 BKN015
     FM241200 VRB03KT 1SM BR SCT010 BKN015
     FM241400 23005KT P6SM SCT010 BKN020=



000
FTUS43 KLOT 231700
TAFRFD
TAF
KRFD 231736Z 2318/2418 20016G20KT P6SM SCT060 OVC150
     FM231900 20009KT P6SM SCT030 OVC060
      TEMPO 2319/2322 -SHRA SCT020 OVC035
     FM232200 20004KT 6SM BR OVC020
     FM240600 VRB03KT 2SM BR BKN015
     FM240900 VRB03KT 1/2SM FG BKN010
     FM241200 VRB03KT 1/4SM FG BKN010
     FM241400 21006KT P6SM SCT010 BKN025=



000
FTUS43 KLOT 231700
TAFORD
TAF
KORD 231736Z 2318/2424 22011G17KT P6SM BKN200
     FM232300 20008KT P6SM VCSH SCT035 OVC060
     FM240100 22005KT P6SM BKN025 OVC040
     FM240300 21006KT P6SM SCT010 BKN015
     FM241400 23005KT P6SM SCT010 BKN020
     FM241800 23008KT P6SM SCT025=



000
FTUS43 KLOT 231700
TAFGYY
TAF
KGYY 231736Z 2318/2418 20008G16KT P6SM BKN200
     FM240000 19008KT P6SM VCSH SCT035 OVC060
     FM240200 23004KT P6SM BKN025 OVC040
     FM240400 20006KT P6SM SCT010 BKN015
     FM241400 24007KT P6SM SCT010 BKN020=



000
FTUS43 KLOT 231500 AAB
TAFMDW
TAF AMD
KMDW 231559Z 2316/2412 22011KT P6SM BKN200
     FM232300 20008KT P6SM VCSH SCT035 OVC060
     FM240100 24005KT P6SM BKN025 OVC040=



000
FTUS43 KLOT 231500 AAB
TAFMDW
TAF AMD
KMDW 231559Z 2316/2412 22011KT P6SM BKN200
     FM232300 20008KT P6SM VCSH SCT035 OVC060
     FM240100 24005KT P6SM BKN025 OVC040=



000
FTUS43 KLOT 231500 AAB
TAFORD
TAF AMD
KORD 231559Z 2316/2418 21011KT P6SM BKN200
     FM232300 20008KT P6SM VCSH SCT035 OVC060
     FM240100 24005KT P6SM BKN025 OVC040
     FM241400 23005KT P6SM SCT025=



000
FTUS43 KLOT 231500 AAB
TAFRFD
TAF AMD
KRFD 231559Z 2316/2412 19013KT P6SM SCT060 OVC150
     FM231900 20009KT 6SM -SHRA SCT020 OVC035
     FM232200 20004KT 6SM BR OVC020
     FM240700 VRB03KT 2SM BR SCT020=



000
FTUS43 KLOT 231500 AAB
TAFGYY
TAF AMD
KGYY 231559Z 2316/2412 19011KT P6SM BKN200
     FM240000 19008KT P6SM VCSH SCT035 OVC060
     FM240100 23004KT P6SM BKN025 OVC040=



000
FTUS43 KLOT 231500 AAB
TAFDPA
TAF AMD
KDPA 231559Z 2316/2412 20011KT P6SM FEW120 BKN200
     FM232300 19008KT P6SM VCSH SCT035 OVC060
     FM240100 24005KT P6SM BKN025 OVC040
     FM240900 VRB03KT 3SM BR SCT025=



000
FTUS43 KLOT 231500 AAB
TAFRFD
TAF AMD
KRFD 231559Z 2316/2412 19013KT P6SM SCT060 OVC150
     FM231900 20009KT 6SM -SHRA SCT020 OVC035
     FM232200 20004KT 6SM BR OVC020
     FM240700 VRB03KT 2SM BR SCT020=



000
FTUS43 KLOT 231500 AAB
TAFGYY
TAF AMD
KGYY 231559Z 2316/2412 19011KT P6SM BKN200
     FM240000 19008KT P6SM VCSH SCT035 OVC060
     FM240100 23004KT P6SM BKN025 OVC040=



000
FTUS43 KLOT 231500 AAB
TAFORD
TAF AMD
KORD 231559Z 2316/2418 21011KT P6SM BKN200
     FM232300 20008KT P6SM VCSH SCT035 OVC060
     FM240100 24005KT P6SM BKN025 OVC040
     FM241400 23005KT P6SM SCT025=



000
FTUS43 KLOT 231500 AAB
TAFDPA
TAF AMD
KDPA 231559Z 2316/2412 20011KT P6SM FEW120 BKN200
     FM232300 19008KT P6SM VCSH SCT035 OVC060
     FM240100 24005KT P6SM BKN025 OVC040
     FM240900 VRB03KT 3SM BR SCT025=



000
FTUS43 KLOT 231300 AAA
TAFMDW
TAF AMD
KMDW 231359Z 2314/2412 19007KT P6SM FEW190 BKN250
     FM231500 19011KT P6SM BKN200
     FM232300 20008KT P6SM VCSH SCT035 OVC060
     FM240300 24005KT P6SM BKN025 OVC040=



000
FTUS43 KLOT 231300 AAA
TAFORD
TAF AMD
KORD 231359Z 2314/2418 18007KT P6SM FEW190 BKN250
     FM231500 19011KT P6SM BKN200
     FM232300 20008KT P6SM VCSH SCT035 OVC060
     FM240300 24005KT P6SM BKN025 OVC040
     FM241400 23005KT P6SM SCT025=



000
FTUS43 KLOT 231300 AAA
TAFGYY
TAF AMD
KGYY 231359Z 2314/2412 16007KT P6SM BKN250
      TEMPO 2314/2315 5SM BR
     FM231500 19011KT P6SM BKN200
     FM232300 19008KT P6SM VCSH SCT035 OVC060
     FM240300 23004KT P6SM BKN025 OVC040=



000
FTUS43 KLOT 231300 AAA
TAFDPA
TAF AMD
KDPA 231359Z 2314/2412 19007KT P6SM FEW120 BKN200
     FM232200 19008KT P6SM VCSH SCT035 OVC060
     FM240200 24005KT P6SM BKN025 OVC040
     FM240900 VRB03KT 3SM BR SCT025=



000
FTUS43 KLOT 231300 AAA
TAFRFD
TAF AMD
KRFD 231359Z 2314/2412 16011KT P6SM SCT060 OVC150
     FM231900 20009KT 6SM -SHRA SCT020 OVC035
     FM232300 20004KT 6SM BR OVC020
     FM240700 VRB03KT 2SM BR SCT020=



000
FTUS43 KLOT 231100
TAFDPA
TAF
KDPA 231125Z 2312/2412 17007KT P6SM BKN250
     FM231400 19011KT P6SM FEW120 BKN200
     FM232200 19008KT P6SM VCSH SCT035 OVC060
     FM240200 24005KT P6SM BKN025 OVC040
     FM240900 VRB03KT 3SM BR SCT025=



000
FTUS43 KLOT 231100
TAFRFD
TAF
KRFD 231125Z 2312/2412 16008KT P6SM SCT150 BKN250
     FM231400 19011KT P6SM SCT060 OVC150
     FM231900 20009KT 6SM -SHRA SCT020 OVC035
     FM232300 20004KT 6SM BR OVC020
     FM240700 VRB03KT 2SM BR SCT020=



000
FTUS43 KLOT 231100
TAFMDW
TAF
KMDW 231125Z 2312/2412 17007KT P6SM BKN250
     FM231500 19011KT P6SM BKN200
     FM232300 20008KT P6SM VCSH SCT035 OVC060
     FM240300 24005KT P6SM BKN025 OVC040=



000
FTUS43 KLOT 231100
TAFORD
TAF
KORD 231125Z 2312/2418 18007KT P6SM BKN250
     FM231500 19011KT P6SM BKN200
     FM232300 20008KT P6SM VCSH SCT035 OVC060
     FM240300 24005KT P6SM BKN025 OVC040
     FM241400 23005KT P6SM SCT025=



000
FTUS43 KLOT 231100
TAFGYY
TAF
KGYY 231125Z 2312/2412 16007KT P6SM BKN250
     FM231500 19011KT P6SM BKN200
     FM232300 19008KT P6SM VCSH SCT035 OVC060
     FM240300 23004KT P6SM BKN025 OVC040=



000
FTUS43 KLOT 230900 AAA
TAFMDW
TAF AMD
KMDW 230900Z 2309/2406 16007KT P6SM SCT250
     FM231500 19011KT P6SM BKN200
     FM232200 20008KT P6SM VCSH SCT035 OVC060
     FM240200 24006KT P6SM BKN025 OVC040=



000
FTUS43 KLOT 230900 AAA
TAFGYY
TAF AMD
KGYY 230900Z 2309/2406 16005KT 5SM BR SCT250
     FM231500 19011KT P6SM BKN200
     FM232200 19008KT P6SM VCSH SCT035 OVC060
     FM240200 23005KT P6SM BKN025 OVC040=



000
FTUS43 KLOT 230900 AAA
TAFORD
TAF AMD
KORD 230900Z 2309/2412 16007KT P6SM SCT250
     FM231500 19011KT P6SM BKN200
     FM232200 20008KT P6SM VCSH SCT035 OVC060
     FM240200 24006KT P6SM BKN025 OVC040=



000
FTUS43 KLOT 230900 AAA
TAFRFD
TAF AMD
KRFD 230900Z 2309/2406 16007KT P6SM BKN250
     FM231400 19011KT P6SM BKN150
     FM231800 20009KT 6SM -SHRA SCT020 OVC035
     FM232300 19005KT 6SM BR OVC020=



000
FTUS43 KLOT 230900 AAA
TAFDPA
TAF AMD
KDPA 230900Z 2309/2406 16007KT 6SM BR SCT250
     FM231400 19011KT P6SM BKN200
     FM232100 20008KT P6SM VCSH SCT035 OVC060
     FM240100 24006KT P6SM BKN025 OVC040=



000
FTUS43 KLOT 230500
TAFRFD
TAF
KRFD 230520Z 2306/2406 15005KT P6SM BKN250
     FM231400 19011KT P6SM BKN150
     FM231800 20009KT 6SM -SHRA SCT020 OVC035
     FM232300 19005KT 6SM BR OVC020=



000
FTUS43 KLOT 230500
TAFDPA
TAF
KDPA 230520Z 2306/2406 VRB03KT P6SM SCT250
     FM231400 19011KT P6SM BKN200
     FM232100 20008KT P6SM VCSH SCT035 OVC060
     FM240100 24006KT P6SM BKN025 OVC040=



000
FTUS43 KLOT 230500
TAFORD
TAF
KORD 230520Z 2306/2412 16004KT P6SM SCT250
     FM231500 19011KT P6SM BKN200
     FM232200 20008KT P6SM VCSH SCT035 OVC060
     FM240200 24006KT P6SM BKN025 OVC040=



000
FTUS43 KLOT 230500
TAFGYY
TAF
KGYY 230520Z 2306/2406 16004KT P6SM SCT250
     FM231500 19011KT P6SM BKN200
     FM232200 19008KT P6SM VCSH SCT035 OVC060
     FM240200 23005KT P6SM BKN025 OVC040=



000
FTUS43 KLOT 230500
TAFMDW
TAF
KMDW 230520Z 2306/2406 16004KT P6SM SCT250
     FM231500 19011KT P6SM BKN200
     FM232200 20008KT P6SM VCSH SCT035 OVC060
     FM240200 24006KT P6SM BKN025 OVC040=



000
FTUS43 KLOT 230200 AAA
TAFGYY
TAF AMD
KGYY 230256Z 2303/2324 14003KT P6SM FEW250
     FM231400 19009KT P6SM SCT250
     FM232200 20008KT P6SM -SHRA SCT025 BKN040 OVC070=



000
FTUS43 KLOT 230200 AAA
TAFDPA
TAF AMD
KDPA 230256Z 2303/2324 VRB03KT P6SM FEW250
     FM231600 19010KT P6SM BKN250
     FM232100 20008KT P6SM -SHRA SCT025 BKN040 OVC060=



000
FTUS43 KLOT 230200 AAA
TAFORD
TAF AMD
KORD 230256Z 2303/2406 16004KT P6SM FEW250
     FM231600 19010KT P6SM BKN250
     FM232200 20008KT P6SM -SHRA SCT025 BKN040 OVC060
     FM240200 24006KT P6SM BKN025 OVC040=



000
FTUS43 KLOT 230200 AAA
TAFMDW
TAF AMD
KMDW 230256Z 2303/2324 15004KT P6SM FEW250
     FM231600 19010KT P6SM BKN250
     FM232200 20008KT P6SM -SHRA SCT025 BKN040 OVC070=



000
FTUS43 KLOT 230200 AAA
TAFRFD
TAF AMD
KRFD 230256Z 2303/2324 15004KT P6SM FEW250
     FM231500 19010KT P6SM BKN150
     FM231800 20009KT 6SM -SHRA BR OVC030=



000
FTUS43 KLOT 222300
TAFMDW
TAF
KMDW 222338Z 2300/2324 08007KT P6SM SKC
     FM230300 15004KT P6SM FEW250
     FM231600 19010KT P6SM BKN250
     FM232200 20008KT P6SM -SHRA SCT025 BKN040 OVC070=



000
FTUS43 KLOT 222300
TAFRFD
TAF
KRFD 222338Z 2300/2324 16005KT P6SM SKC
     FM230100 14004KT P6SM FEW250
     FM231500 19010KT P6SM BKN150
     FM231800 20009KT 6SM -SHRA BR OVC030=



000
FTUS43 KLOT 222300
TAFDPA
TAF
KDPA 222338Z 2300/2324 13005KT P6SM SKC
     FM230100 VRB03KT P6SM FEW250
     FM231600 19010KT P6SM BKN250
     FM232100 20008KT P6SM -SHRA SCT025 BKN040 OVC060=



000
FTUS43 KLOT 222300
TAFORD
TAF
KORD 222338Z 2300/2406 09007KT P6SM SKC
     FM230300 16004KT P6SM FEW250
     FM231600 19010KT P6SM BKN250
     FM232200 20008KT P6SM -SHRA SCT025 BKN040 OVC060
     FM240200 24006KT P6SM BKN025 OVC040=



000
FTUS43 KLOT 222300
TAFGYY
TAF
KGYY 222338Z 2300/2324 03008KT P6SM SKC
     FM230500 14003KT P6SM SKC
     FM231400 19009KT P6SM SCT250
     FM232200 20008KT P6SM -SHRA SCT025 BKN040 OVC070=



000
FTUS43 KLOT 222100 AAB
TAFORD
TAF AMD
KORD 222157Z 2222/2324 09007KT P6SM SKC
     FM230300 16004KT P6SM FEW250
     FM231600 19010KT P6SM BKN250
     FM232200 20010KT P6SM -SHRA SCT025 BKN040=



000
FTUS43 KLOT 222100 AAB
TAFRFD
TAF AMD
KRFD 222157Z 2222/2318 16005KT P6SM SKC
     FM230100 14004KT P6SM FEW250
     FM231500 19010KT P6SM BKN150=



000
FTUS43 KLOT 222100 AAB
TAFDPA
TAF AMD
KDPA 222157Z 2222/2318 16005KT P6SM SKC
     FM230100 VRB03KT P6SM FEW250
     FM231600 19008KT P6SM BKN250=



000
FTUS43 KLOT 222100 AAB
TAFGYY
TAF AMD
KGYY 222157Z 2222/2318 03008KT P6SM SKC
     FM230500 14003KT P6SM SKC
     FM231400 19009KT P6SM FEW250=



000
FTUS43 KLOT 222100 AAB
TAFMDW
TAF AMD
KMDW 222157Z 2222/2318 09007KT P6SM SKC
     FM230300 15004KT P6SM FEW250
     FM231600 19010KT P6SM BKN250=



000
FTUS43 KLOT 221900 AAA
TAFGYY
TAF AMD
KGYY 221955Z 2220/2318 03008KT P6SM SKC
     FM230500 14003KT P6SM SKC
     FM231400 19009KT P6SM FEW250=



000
FTUS43 KLOT 221900 AAA
TAFRFD
TAF AMD
KRFD 221955Z 2220/2318 16005KT P6SM SKC
     FM230100 14004KT P6SM FEW250
     FM231500 19010KT P6SM BKN150=



000
FTUS43 KLOT 221900 AAA
TAFORD
TAF AMD
KORD 221955Z 2220/2324 09007KT P6SM SKC
     FM230300 16004KT P6SM FEW250
     FM231600 19010KT P6SM BKN250
     FM232200 20010KT P6SM -SHRA SCT025 BKN040=



000
FTUS43 KLOT 221900 AAA
TAFDPA
TAF AMD
KDPA 221955Z 2220/2318 16005KT P6SM SKC
     FM230100 VRB03KT P6SM FEW250
     FM231600 19008KT P6SM BKN250=



000
FTUS43 KLOT 221900 AAA
TAFMDW
TAF AMD
KMDW 221955Z 2220/2318 09007KT P6SM SKC
     FM230300 15004KT P6SM FEW250
     FM231600 19010KT P6SM BKN250=



000
FTUS43 KLOT 221700
TAFDPA
TAF
KDPA 221731Z 2218/2318 16007KT P6SM SKC
     FM230100 VRB03KT P6SM FEW250
     FM231600 19008KT P6SM BKN250=



000
FTUS43 KLOT 221700
TAFMDW
TAF
KMDW 221731Z 2218/2318 11007KT P6SM SKC
     FM230300 15004KT P6SM FEW250
     FM231600 19010KT P6SM BKN250=



000
FTUS43 KLOT 221700
TAFRFD
TAF
KRFD 221731Z 2218/2318 15008KT P6SM SKC
     FM230100 14004KT P6SM FEW250
     FM231500 19010KT P6SM BKN150=



000
FTUS43 KLOT 221700
TAFORD
TAF
KORD 221731Z 2218/2324 09007KT P6SM SKC
     FM230300 16004KT P6SM FEW250
     FM231600 19010KT P6SM BKN250
     FM232200 20010KT P6SM -SHRA SCT025 BKN040=



000
FTUS43 KLOT 221700
TAFGYY
TAF
KGYY 221731Z 2218/2318 04008KT P6SM SKC
     FM230500 14003KT P6SM SKC
     FM231400 19009KT P6SM FEW250=



000
FTUS43 KLOT 221700
TAFGYY
TAF
KGYY 221731Z 2218/2318 04008KT P6SM SKC
     FM230500 14003KT P6SM SKC
     FM231400 19009KT P6SM FEW250=



000
FTUS43 KLOT 221700
TAFMDW
TAF
KMDW 221731Z 2218/2318 11007KT P6SM SKC
     FM230300 15004KT P6SM FEW250
     FM231600 19010KT P6SM BKN250=



000
FTUS43 KLOT 221700
TAFORD
TAF
KORD 221731Z 2218/2324 09007KT P6SM SKC
     FM230300 16004KT P6SM FEW250
     FM231600 19010KT P6SM BKN250
     FM232200 20010KT P6SM -SHRA SCT025 BKN040=



000
FTUS43 KLOT 221700
TAFDPA
TAF
KDPA 221731Z 2218/2318 16007KT P6SM SKC
     FM230100 VRB03KT P6SM FEW250
     FM231600 19008KT P6SM BKN250=



000
FTUS43 KLOT 221700
TAFRFD
TAF
KRFD 221731Z 2218/2318 15008KT P6SM SKC
     FM230100 14004KT P6SM FEW250
     FM231500 19010KT P6SM BKN150=



000
FTUS43 KLOT 221500 AAB
TAFMDW
TAF AMD
KMDW 221555Z 2216/2312 12006KT P6SM FEW035
     FM221800 09007KT P6SM SKC
     FM230300 15004KT P6SM FEW250=



000
FTUS43 KLOT 221500 AAB
TAFGYY
TAF AMD
KGYY 221555Z 2216/2312 09006KT P6SM FEW030
     FM221800 04008KT P6SM SKC
     FM230200 14003KT P6SM FEW250=



000
FTUS43 KLOT 221500 AAB
TAFRFD
TAF AMD
KRFD 221555Z 2216/2312 12008KT P6SM SKC
     FM230100 14004KT P6SM SCT250=



000
FTUS43 KLOT 221500 AAB
TAFORD
TAF AMD
KORD 221555Z 2216/2318 11006KT P6SM FEW035
     FM221800 09007KT P6SM SKC
     FM230300 15004KT P6SM FEW250
     FM231400 19008KT P6SM BKN250=



000
FTUS43 KLOT 221500 AAB
TAFDPA
TAF AMD
KDPA 221555Z 2216/2312 03007KT P6SM SKC
     FM230100 VRB03KT P6SM FEW250=



000
FTUS43 KLOT 221500 AAB
TAFORD
TAF AMD
KORD 221555Z 2216/2318 11006KT P6SM FEW035
     FM221800 09007KT P6SM SKC
     FM230300 15004KT P6SM FEW250
     FM231400 19008KT P6SM BKN250=



000
FTUS43 KLOT 221500 AAB
TAFRFD
TAF AMD
KRFD 221555Z 2216/2312 12008KT P6SM SKC
     FM230100 14004KT P6SM SCT250=



000
FTUS43 KLOT 221500 AAB
TAFMDW
TAF AMD
KMDW 221555Z 2216/2312 12006KT P6SM FEW035
     FM221800 09007KT P6SM SKC
     FM230300 15004KT P6SM FEW250=



000
FTUS43 KLOT 221500 AAB
TAFDPA
TAF AMD
KDPA 221555Z 2216/2312 03007KT P6SM SKC
     FM230100 VRB03KT P6SM FEW250=



000
FTUS43 KLOT 221500 AAB
TAFGYY
TAF AMD
KGYY 221555Z 2216/2312 09006KT P6SM FEW030
     FM221800 04008KT P6SM SKC
     FM230200 14003KT P6SM FEW250=



000
FTUS43 KLOT 221300 AAA
TAFRFD
TAF AMD
KRFD 221358Z 2214/2312 14008KT P6SM SKC
     FM230100 14004KT P6SM SCT250=



000
FTUS43 KLOT 221300 AAA
TAFDPA
TAF AMD
KDPA 221358Z 2214/2312 09007KT P6SM SKC
     FM230100 VRB03KT P6SM FEW250=



000
FTUS43 KLOT 221300 AAA
TAFGYY
TAF AMD
KGYY 221358Z 2214/2312 09006KT P6SM SKC
     FM221800 04008KT P6SM SKC
     FM230200 14003KT P6SM FEW250=



000
FTUS43 KLOT 221300 AAA
TAFORD
TAF AMD
KORD 221358Z 2214/2318 09006KT P6SM FEW035
     FM221800 09007KT P6SM SKC
     FM230300 15004KT P6SM FEW250
     FM231400 19008KT P6SM BKN250=



000
FTUS43 KLOT 221300 AAA
TAFMDW
TAF AMD
KMDW 221358Z 2214/2312 12006KT P6SM FEW035
     FM221800 09007KT P6SM SKC
     FM230300 15004KT P6SM FEW250=



    US Dept of Commerce
    National Oceanic and Atmospheric Administration
    National Weather Service
    1325 East West Highway
    Silver Spring, MD 20910
    Page Author: NWS Internet Services Team
Disclaimer
Information Quality
Credits
Glossary
Privacy Policy
Freedom of Information Act (FOIA)
About Us
Career Opportunities